AirNav   TITAN Aviation Fuels
 
 974 users online  

75G Rossettie Airport
Manchester, Michigan, USA

GOING TO MANCHESTER?


FAA INFORMATION EFFECTIVE 11 AUGUST 2022

Location

FAA Identifier: 75G
Lat/Long: 42-11-42.3500N 084-01-51.1000W
42-11.705833N 084-01.851667W
42.1950972,-84.0308611
(estimated)
Elevation: 1005 ft. / 306.3 m (surveyed)
Variation: 05W (1985)
From city: 3 miles N of MANCHESTER, MI
Time zone: UTC -4 (UTC -5 during Standard Time)
Zip code: 48158

Airport Operations

Airport use: Open to the public
Activation date: 02/1976
Control tower: no
ARTCC: CLEVELAND CENTER
FSS: LANSING FLIGHT SERVICE STATION
NOTAMs facility: LAN (NOTAM-D service available)
Attendance: IREG
Wind indicator: yes
Segmented circle: yes
Lights: ACTVT NSTD LIRL RWY 18/36 - CTAF.

Airport Communications

CTAF: 122.9
WX ASOS at ARB (13 nm E): PHONE 734-668-7173
WX ASOS at JXN (20 nm W): PHONE 517-768-7506
WX ASOS at ADG (20 nm S): 118.375 (517-265-9089)

Nearby radio navigation aids

VOR radial/distance  VOR name  Freq  Var
SVMr240/23.2SALEM VORTAC114.3003W
CRLr292/27.0CARLETON VOR/DME115.7003W
DXOr274/29.5DETROIT VOR/DME113.4006W
LFDr081/33.6LITCHFIELD VOR/DME111.2005W

 
NDB name  Hdg/Dist  Freq  Var  ID
TECUMSEH332/11.623906WTCU - -.-. ..-
ADRIAN012/19.627806WADG .- -.. --.
GROSSE ILE285/39.541907WRYS .-. -.-- ...

Airport Services

Fuel available: UL94
Parking: tiedowns
Airframe service: NONE
Powerplant service: NONE
Bottled oxygen: NONE
Bulk oxygen: NONE

Runway Information

Runway 18/36

Dimensions: 2480 x 100 ft. / 756 x 30 m
Surface: turf, in fair condition
SOFT IN SPRING.
Runway edge lights: non-standard
NSTD LIRL DUE TO NOT FAA APVD L-800 SERIES.
Runway edge markings: YELLOW CONES.
RUNWAY 18  RUNWAY 36
Latitude: 42-11.910000N42-11.501667N
Longitude: 084-01.856667W084-01.846667W
Elevation: 968.0 ft.1005.0 ft.
Traffic pattern: leftright
Runway heading: 184 magnetic, 179 true004 magnetic, 359 true
Displaced threshold: no365 ft.
Runway end identifier lights: nono
Obstructions: 67 ft. tree, 371 ft. from runway, 150 ft. right of centerline, 5:1 slope to clear12 ft. road, 25 ft. from runway, 128 ft. left and right of centerline, 2:1 slope to clear
APCH RATIO 8:1 TO DTHR; DTHR ELEV ESTD -9 FT BLW THR.

Airport Ownership and Management from official FAA records

Ownership: Privately-owned
Owner: AUGUST M ROSSETTIE
8875 M 52
MANCHESTER, MI 48158-9446
Phone 734-323-8766
Manager: AUGUST M ROSSETTIE
8875 M 52
MANCHESTER, MI 48158-9446
Phone 734-323-8766

Airport Operational Statistics

Aircraft based on the field: 13
Single engine airplanes: 7
Ultralights: 6
    
Aircraft operations: avg 42/month *
60% local general aviation
40% transient general aviation
* for 12-month period ending 31 December 2021

Additional Remarks

FOR CD CTC DETROIT APCH AT 734-955-1404.
BIRDS & DEER ON & INVOF ARPT.
FOR FLD CONDS DURG SNOW CTC AMGR.
OPPOSITE RWY END NOT VSB FM THR DUE TO ROLLING TRRN.

Instrument Procedures

There are no published instrument procedures at 75G.

Some nearby airports with instrument procedures:

KARB - Ann Arbor Municipal Airport (13 nm E)
KJXN - Jackson County Airport/Reynolds Field (20 nm W)
KADG - Lenawee County Airport (20 nm S)
KYIP - Willow Run Airport (22 nm E)
Y47 - Oakland Southwest Airport (26 nm NE)
 
Loc | Ops | Rwys | IFR | FBO | Links
Com | Nav | Svcs | Stats | Notes
Area around 75G (Rossettie Airport)
 
Road maps at: MapQuest Bing Google
 
Aerial photo
WARNING: Photo may not be current or correct
Aerial photo of 75G (Rossettie Airport)
Photo by Evan Nau

Do you have a better or more recent aerial photo of Rossettie Airport that you would like to share? If so, please send us your photo.

 
Sectional chart

 
Airport distance calculator
Flying to Rossettie Airport? Find the distance to fly.

From to 75G

Sunrise and sunset
Times for 13-Aug-2022
 Local
(UTC-4)
 Zulu
(UTC)
Morning civil twilight06:1210:12
Sunrise06:4210:42
Sunset20:3900:39
Evening civil twilight21:1001:10

Current date and time
Zulu (UTC)  14-Aug-2022 01:36:49
Local (UTC-4)  13-Aug-2022 21:36:49
 
METAR
KARB 
13nm E 
734-668-7173
140053Z AUTO 00000KT 10SM BKN047 OVC055 15/13 A3010 RMK AO2 RAB2357E25 SLP191 P0001 T01500133
KJXN 
20nm W 
140056Z 09004KT 10SM FEW110 14/12 A3010 RMK AO2 RAE37 SLP191 T01390122 $
KADG 
20nm S 
140053Z AUTO 10010KT 4SM RA BR FEW004 BKN080 OVC100 15/14 A3007 RMK AO2 PRESFR SLP185 P0008 T01500144
KYIP 
22nm E 
140053Z 00000KT 10SM FEW043 OVC055 18/12 A3011 RMK AO2 RAB05E30 SLP190 P0000 T01780122 $
KOZW 
25nm N 
140115Z AUTO 00000KT 10SM OVC036 16/15 A3010 RMK AO2 T01570145
TAF
KJXN 
20nm W 
132330Z 1400/1424 10005KT 3SM -SHRA BR SCT025 BKN050 FM140200 12006KT 5SM -SHRA SCT025 OVC050 TEMPO 1402/1406 3SM -SHRA BR OVC025 FM141100 14007KT 4SM BR VCSH OVC025 FM141300 12006KT 4SM -DZ BR OVC008 FM141600 12008KT P6SM OVC015
KYIP 
22nm E 
132320Z 1400/1424 21004KT P6SM VCSH SCT035 OVC070 FM140800 VRB04KT 5SM -SHRA BR BKN045 OVC060 FM141200 11006KT P6SM VCSH BKN035 OVC050 TEMPO 1412/1416 5SM -SHRA BR BKN022 OVC035 FM141600 11010KT P6SM BKN060 PROB30 1416/1420 4SM -SHRA BR BKN030 OVC050
NOTAMs
Click for the latest NOTAMs
NOTAMs are issued by the DoD/FAA and will open in a separate window not controlled by AirNav.

 

 
 

Would you like to see your business listed on this page?

 If your business provides an interesting product or service to pilots, flight crews, aircraft, or users of the Rossettie Airport, you should consider listing it here.  To start the listing process, click on the button below
 
Add a business
 

Other Pages about Rossettie Airport

Page from the Michigan Airport Directory (PDF)
 
Update a link
 
Copyright © AirNav, LLC. All rights reserved. Privacy Policy  Contact